Time;durP1;ratioP1;P1;durP2;ratioP2;P2;SDS_P1;SDS_P2;PMS_P1;PMS_P2;Temp;Humidity;BMP_temperature;BMP_pressure;BME280_temperature;BME280_humidity;BME280_pressure;Samples;Min_cycle;Max_cycle;Signal;HPM_P1;HPM_P2
2022/08/07 00:00:15;;;;;;;1.35;1.20;;;16.50;60.50;;;;;;5010518;28;20018;-66
2022/08/07 00:02:40;;;;;;;2.22;1.25;;;16.50;60.50;;;;;;5009622;28;20037;-66
2022/08/07 00:05:06;;;;;;;2.08;1.20;;;16.50;60.60;;;;;;5009252;28;20034;-66
2022/08/07 00:07:31;;;;;;;1.70;1.20;;;16.50;60.60;;;;;;5010002;28;20029;-66
2022/08/07 00:09:57;;;;;;;1.98;1.20;;;16.40;61.00;;;;;;5024087;28;20136;-67
2022/08/07 00:12:22;;;;;;;1.95;1.40;;;16.40;61.00;;;;;;5010270;28;20381;-66
2022/08/07 00:14:48;;;;;;;2.00;1.20;;;16.40;61.00;;;;;;5007564;28;20049;-67
2022/08/07 00:17:14;;;;;;;1.75;1.30;;;16.40;61.10;;;;;;5008394;28;20092;-67
2022/08/07 00:19:39;;;;;;;1.92;1.40;;;16.30;61.20;;;;;;5006684;28;20037;-66
2022/08/07 00:22:05;;;;;;;1.50;1.40;;;16.40;61.20;;;;;;5007565;28;20030;-66
2022/08/07 00:24:31;;;;;;;1.63;1.42;;;16.40;61.20;;;;;;5008110;28;20022;-67
2022/08/07 00:26:56;;;;;;;2.00;1.50;;;16.30;61.30;;;;;;5007541;28;20025;-66
2022/08/07 00:29:25;;;;;;;1.40;1.30;;;16.30;61.50;;;;;;5008063;28;20018;-67
2022/08/07 00:31:53;;;;;;;1.63;1.33;;;16.30;61.50;;;;;;5006546;28;20743;-66
2022/08/07 00:34:18;;;;;;;1.42;1.33;;;16.30;61.60;;;;;;5005381;28;20036;-67
2022/08/07 00:36:44;;;;;;;2.17;1.50;;;16.20;61.70;;;;;;5007766;28;20768;-67
2022/08/07 00:39:11;;;;;;;1.90;1.63;;;16.20;61.70;;;;;;5008437;28;20084;-67
2022/08/07 00:41:38;;;;;;;1.40;1.30;;;16.20;61.90;;;;;;5007198;28;20152;-66
2022/08/07 00:44:04;;;;;;;2.38;1.65;;;16.20;62.50;;;;;;5007572;28;20037;-66
2022/08/07 00:46:30;;;;;;;2.22;1.70;;;16.10;61.90;;;;;;5000576;28;20076;-66
2022/08/07 00:49:00;;;;;;;2.25;1.60;;;16.10;62.00;;;;;;5006474;28;20069;-67
2022/08/07 00:51:27;;;;;;;1.50;1.40;;;16.10;62.10;;;;;;5006788;28;20117;-66
2022/08/07 00:53:53;;;;;;;2.65;1.80;;;16.10;62.10;;;;;;5000971;28;20029;-67
2022/08/07 00:56:18;;;;;;;2.00;1.60;;;16.00;62.20;;;;;;4999175;28;20385;-66
2022/08/07 00:58:44;;;;;;;2.45;1.90;;;16.00;62.30;;;;;;4999837;28;20144;-66
2022/08/07 01:01:10;;;;;;;2.17;1.55;;;15.90;62.60;;;;;;5003900;28;20081;-67
2022/08/07 01:03:35;;;;;;;3.13;1.83;;;16.00;62.50;;;;;;5011135;28;20018;-67
2022/08/07 01:06:02;;;;;;;2.53;1.83;;;15.90;62.40;;;;;;5011333;28;20034;-66
2022/08/07 01:08:27;;;;;;;2.33;1.90;;;16.00;62.40;;;;;;5011334;28;20100;-67
2022/08/07 01:10:53;;;;;;;2.25;1.88;;;16.00;62.40;;;;;;5011261;28;20074;-67
2022/08/07 01:13:20;;;;;;;3.05;1.80;;;16.00;62.20;;;;;;5011211;28;20477;-66
2022/08/07 01:15:46;;;;;;;2.45;1.92;;;16.00;62.10;;;;;;5010809;28;20088;-66
2022/08/07 01:18:13;;;;;;;3.00;1.80;;;16.00;62.10;;;;;;5010953;28;20503;-67
2022/08/07 01:20:44;;;;;;;2.55;1.90;;;16.00;62.20;;;;;;5009670;28;20476;-66
2022/08/07 01:23:11;;;;;;;2.73;2.10;;;16.00;62.20;;;;;;5011096;28;20496;-66
2022/08/07 01:25:39;;;;;;;2.20;1.77;;;16.00;62.30;;;;;;5010585;28;20018;-67
2022/08/07 01:28:04;;;;;;;2.17;1.98;;;16.00;62.30;;;;;;5010921;28;20077;-67
2022/08/07 01:30:31;;;;;;;2.35;2.10;;;16.00;62.40;;;;;;5010380;28;20026;-66
2022/08/07 01:32:58;;;;;;;2.35;1.98;;;15.90;62.40;;;;;;5010754;28;20030;-66
2022/08/07 01:35:24;;;;;;;2.08;1.70;;;15.90;62.50;;;;;;5010401;28;20030;-66
2022/08/07 01:37:49;;;;;;;2.10;1.70;;;15.90;62.50;;;;;;5010795;28;20045;-66
2022/08/07 01:40:19;;;;;;;2.70;1.85;;;15.80;62.90;;;;;;5010758;28;20388;-66
2022/08/07 01:42:45;;;;;;;1.92;1.63;;;15.80;63.20;;;;;;5010561;28;20120;-66
2022/08/07 01:45:11;;;;;;;2.53;2.10;;;15.80;62.60;;;;;;5010576;28;20113;-66
2022/08/07 01:47:37;;;;;;;2.63;2.00;;;15.80;62.70;;;;;;5010629;28;20084;-66
2022/08/07 01:50:04;;;;;;;2.28;2.03;;;15.70;62.80;;;;;;5010905;28;20076;-66
2022/08/07 01:52:31;;;;;;;2.55;1.95;;;15.70;62.90;;;;;;5010723;28;20445;-66
2022/08/07 01:54:59;;;;;;;1.95;1.75;;;15.70;63.00;;;;;;5010768;28;20018;-66
2022/08/07 01:57:33;;;;;;;1.90;1.70;;;15.60;63.00;;;;;;5010494;28;20018;-67
2022/08/07 02:00:09;;;;;;;3.13;2.40;;;15.60;63.00;;;;;;5010281;28;20044;-67
2022/08/07 02:02:49;;;;;;;3.60;2.20;;;15.70;63.10;;;;;;5010457;28;20413;-67
2022/08/07 02:05:30;;;;;;;2.70;2.35;;;15.60;63.00;;;;;;5010449;28;20091;-67
2022/08/07 02:07:59;;;;;;;3.38;2.40;;;15.60;63.00;;;;;;5010184;28;20678;-66
2022/08/07 02:10:26;;;;;;;4.13;2.33;;;15.70;63.00;;;;;;5009890;28;20029;-66
2022/08/07 02:12:55;;;;;;;2.70;2.10;;;15.70;62.90;;;;;;5008942;28;20108;-66
2022/08/07 02:15:23;;;;;;;2.30;2.10;;;15.70;62.90;;;;;;5010346;28;20034;-66
2022/08/07 02:17:51;;;;;;;3.80;2.53;;;15.70;62.90;;;;;;5010512;28;20022;-66
2022/08/07 02:20:18;;;;;;;2.80;2.10;;;15.70;62.90;;;;;;5010984;28;20022;-66
2022/08/07 02:22:45;;;;;;;3.25;2.30;;;15.70;62.90;;;;;;5010395;28;20461;-66
2022/08/07 02:25:14;;;;;;;2.75;2.45;;;15.70;62.80;;;;;;5010138;28;20559;-66
2022/08/07 02:27:42;;;;;;;2.78;2.10;;;15.70;62.80;;;;;;5010193;28;20092;-66
2022/08/07 02:30:08;;;;;;;3.35;2.10;;;15.70;62.90;;;;;;5010090;28;20022;-66
2022/08/07 02:32:36;;;;;;;2.95;2.20;;;15.60;62.90;;;;;;5009806;28;20081;-66
2022/08/07 02:35:03;;;;;;;2.70;1.92;;;15.60;63.70;;;;;;5007719;28;20643;-66
2022/08/07 02:37:31;;;;;;;3.92;2.50;;;15.50;63.10;;;;;;5009664;28;20109;-66
2022/08/07 02:39:59;;;;;;;4.13;2.42;;;15.40;63.30;;;;;;5009083;28;20089;-66
2022/08/07 02:42:24;;;;;;;2.92;2.05;;;15.30;63.50;;;;;;5009321;28;20030;-66
2022/08/07 02:44:52;;;;;;;2.88;2.35;;;15.30;63.70;;;;;;5009838;28;20033;-66
2022/08/07 02:47:18;;;;;;;3.92;2.30;;;15.20;63.90;;;;;;5010092;28;20369;-66
2022/08/07 02:49:44;;;;;;;2.40;2.08;;;15.20;63.90;;;;;;5009979;28;20061;-66
2022/08/07 02:52:14;;;;;;;2.75;2.28;;;15.10;63.90;;;;;;5010014;28;20512;-66
2022/08/07 02:54:41;;;;;;;3.58;2.38;;;15.10;64.10;;;;;;5013406;28;20113;-67
2022/08/07 02:57:12;;;;;;;2.80;2.28;;;15.10;64.20;;;;;;5027845;28;20029;-67
2022/08/07 02:59:41;;;;;;;2.20;2.00;;;15.00;64.20;;;;;;5015994;28;20022;-66
2022/08/07 03:02:07;;;;;;;2.25;1.92;;;15.00;64.40;;;;;;5010501;28;20029;-66
2022/08/07 03:04:34;;;;;;;3.33;2.22;;;14.90;64.50;;;;;;5010490;28;20034;-66
2022/08/07 03:07:01;;;;;;;4.20;2.22;;;14.90;64.70;;;;;;5010171;28;20018;-67
2022/08/07 03:09:27;;;;;;;2.53;2.08;;;14.90;64.80;;;;;;5010224;28;20392;-67
2022/08/07 03:11:52;;;;;;;3.17;2.40;;;14.80;64.90;;;;;;5009863;28;20026;-66
2022/08/07 03:14:19;;;;;;;2.63;2.28;;;14.80;65.10;;;;;;5009955;28;20026;-66
2022/08/07 03:16:45;;;;;;;2.60;2.10;;;14.80;65.10;;;;;;5009919;28;20022;-66
2022/08/07 03:19:11;;;;;;;2.97;2.20;;;14.70;65.10;;;;;;5009718;28;20533;-66
2022/08/07 03:21:37;;;;;;;4.97;2.72;;;14.70;65.30;;;;;;5010503;28;20113;-66
2022/08/07 03:24:03;;;;;;;4.43;2.70;;;14.60;65.50;;;;;;5013150;28;20026;-66
2022/08/07 03:26:31;;;;;;;4.65;3.00;;;14.60;65.80;;;;;;5013428;28;20041;-66
2022/08/07 03:29:00;;;;;;;2.85;2.45;;;14.60;66.00;;;;;;5013505;28;20029;-66
2022/08/07 03:31:27;;;;;;;4.15;2.95;;;14.60;66.00;;;;;;5022454;28;20412;-66
2022/08/07 03:33:57;;;;;;;4.70;3.08;;;14.60;66.10;;;;;;5012937;28;20030;-66
2022/08/07 03:36:25;;;;;;;3.50;2.60;;;14.60;66.10;;;;;;4998338;28;20038;-67
2022/08/07 03:38:54;;;;;;;3.25;2.55;;;14.60;66.10;;;;;;4995371;28;20029;-67
2022/08/07 03:41:19;;;;;;;4.10;3.00;;;14.60;66.00;;;;;;5007069;28;20025;-66
2022/08/07 03:43:45;;;;;;;4.57;3.20;;;14.70;66.10;;;;;;5004297;28;20074;-67
2022/08/07 03:46:13;;;;;;;3.53;2.78;;;14.70;66.10;;;;;;4997226;28;20026;-66
2022/08/07 03:48:39;;;;;;;5.53;3.00;;;14.70;66.10;;;;;;4998590;28;20097;-66
2022/08/07 03:51:06;;;;;;;3.78;3.13;;;14.70;66.10;;;;;;4993933;28;20381;-67
2022/08/07 03:53:32;;;;;;;4.45;3.28;;;14.70;66.20;;;;;;4993413;28;20762;-67
2022/08/07 03:55:59;;;;;;;4.53;3.58;;;14.70;66.30;;;;;;4993196;28;20030;-67
2022/08/07 03:58:27;;;;;;;4.43;3.53;;;14.70;66.40;;;;;;4993594;28;20030;-67
2022/08/07 04:00:55;;;;;;;3.78;3.05;;;14.70;66.40;;;;;;4993282;28;20105;-66
2022/08/07 04:03:20;;;;;;;4.40;3.33;;;14.70;66.40;;;;;;4993246;28;20015;-67
2022/08/07 04:05:46;;;;;;;3.92;3.03;;;14.70;66.40;;;;;;4992790;28;20033;-67
2022/08/07 04:08:13;;;;;;;3.95;2.95;;;14.70;66.40;;;;;;4992659;28;20537;-66
2022/08/07 04:10:40;;;;;;;3.83;2.72;;;14.70;66.50;;;;;;4992733;28;20022;-67
2022/08/07 04:13:09;;;;;;;3.47;2.90;;;14.70;66.50;;;;;;4991770;28;21316;-67
2022/08/07 04:15:34;;;;;;;4.22;3.30;;;14.60;66.40;;;;;;4992835;28;20033;-67
2022/08/07 04:18:01;;;;;;;4.70;3.50;;;14.60;66.50;;;;;;4993055;28;20026;-67
2022/08/07 04:20:26;;;;;;;4.40;3.30;;;14.70;66.50;;;;;;4993024;28;20023;-67
2022/08/07 04:22:53;;;;;;;4.63;3.25;;;14.70;66.50;;;;;;4993112;28;20148;-69
2022/08/07 04:25:21;;;;;;;5.68;3.67;;;14.70;66.60;;;;;;4993007;28;20034;-67
2022/08/07 04:27:47;;;;;;;5.93;3.50;;;14.70;66.70;;;;;;4992479;28;20030;-67
2022/08/07 04:30:12;;;;;;;5.60;3.63;;;14.70;66.60;;;;;;4992452;28;20030;-66
2022/08/07 04:32:38;;;;;;;5.40;3.67;;;14.60;66.70;;;;;;4991854;28;20030;-66
2022/08/07 04:35:05;;;;;;;5.57;4.10;;;14.70;66.70;;;;;;4992299;28;20019;-66
2022/08/07 04:37:32;;;;;;;4.20;3.38;;;14.70;66.70;;;;;;4992224;28;20041;-66
2022/08/07 04:39:57;;;;;;;5.35;3.60;;;14.70;66.60;;;;;;4992252;28;20027;-66
2022/08/07 04:42:29;;;;;;;5.32;3.95;;;14.80;66.60;;;;;;4992000;28;20034;-66
2022/08/07 04:44:56;;;;;;;7.13;4.20;;;14.80;66.50;;;;;;4992068;28;20018;-66
2022/08/07 04:47:49;;;;;;;5.47;3.83;;;14.80;66.60;;;;;;4992237;28;20080;-66
2022/08/07 04:50:17;;;;;;;;;;;14.80;66.60;;;;;;4992647;28;20057;-67
2022/08/07 04:52:58;;;;;;;4.57;3.53;;;14.80;66.50;;;;;;4991582;28;19906;-67
2022/08/07 04:55:40;;;;;;;5.35;3.78;;;14.80;66.70;;;;;;4991511;28;20114;-67
2022/08/07 04:58:11;;;;;;;4.60;3.50;;;14.70;66.80;;;;;;4991901;28;20030;-66
2022/08/07 05:00:52;;;;;;;4.30;3.30;;;14.70;67.40;;;;;;4991776;28;20105;-66
2022/08/07 05:03:26;;;;;;;4.78;3.50;;;14.70;66.90;;;;;;4991888;28;20389;-66
2022/08/07 05:06:07;;;;;;;4.95;3.60;;;14.70;66.90;;;;;;4991661;28;20037;-66
2022/08/07 05:08:40;;;;;;;4.55;3.53;;;14.70;67.00;;;;;;4991730;28;20022;-67
2022/08/07 05:11:20;;;;;;;4.47;3.45;;;14.70;66.90;;;;;;4991401;28;20026;-67
2022/08/07 05:13:56;;;;;;;4.85;3.60;;;14.70;66.80;;;;;;4991615;28;20036;-67
2022/08/07 05:16:25;;;;;;;5.55;3.88;;;14.80;66.90;;;;;;4991431;28;20034;-67
2022/08/07 05:18:55;;;;;;;5.75;4.00;;;14.80;66.90;;;;;;4991704;28;20030;-67
2022/08/07 05:21:25;;;;;;;5.03;4.00;;;14.80;67.00;;;;;;4991410;28;20034;-67
2022/08/07 05:23:57;;;;;;;5.15;3.80;;;14.90;67.00;;;;;;4991360;28;20018;-67
2022/08/07 05:26:26;;;;;;;5.25;3.90;;;14.90;66.90;;;;;;4991362;28;20022;-66
2022/08/07 05:28:54;;;;;;;5.07;3.83;;;15.20;67.00;;;;;;4990768;28;20018;-67
2022/08/07 05:31:24;;;;;;;5.43;3.75;;;16.20;65.60;;;;;;4990710;28;20029;-67
2022/08/07 05:33:50;;;;;;;5.30;4.28;;;17.50;62.70;;;;;;4990920;28;20054;-67
2022/08/07 05:36:17;;;;;;;5.88;4.22;;;18.80;59.80;;;;;;4991011;28;20429;-67
2022/08/07 05:38:43;;;;;;;5.90;4.20;;;19.80;57.30;;;;;;4991274;28;20015;-66
2022/08/07 05:41:09;;;;;;;6.00;4.43;;;20.70;55.30;;;;;;4990905;28;20026;-66
2022/08/07 05:43:36;;;;;;;4.75;3.42;;;21.50;53.70;;;;;;4990821;28;20627;-66
2022/08/07 05:46:02;;;;;;;5.13;3.80;;;22.20;52.20;;;;;;4990522;28;20516;-67
2022/08/07 05:48:29;;;;;;;4.82;3.75;;;22.90;50.90;;;;;;4989686;28;20026;-67
2022/08/07 05:50:56;;;;;;;4.68;3.33;;;23.60;49.50;;;;;;4990982;28;20026;-66
2022/08/07 05:53:22;;;;;;;4.82;3.42;;;24.10;48.40;;;;;;4990803;28;20027;-66
2022/08/07 05:55:49;;;;;;;4.50;3.33;;;24.70;47.50;;;;;;4990874;28;20022;-66
2022/08/07 05:58:17;;;;;;;4.60;3.38;;;25.20;46.40;;;;;;4990734;28;20026;-66
2022/08/07 06:00:45;;;;;;;3.72;3.13;;;25.70;45.60;;;;;;4989743;28;20478;-66
2022/08/07 06:03:11;;;;;;;5.05;3.58;;;26.20;44.70;;;;;;4990640;28;20481;-66
2022/08/07 06:05:37;;;;;;;4.20;3.15;;;26.40;43.90;;;;;;4990937;28;20044;-67
2022/08/07 06:08:03;;;;;;;3.90;3.30;;;26.60;43.50;;;;;;4990637;28;20027;-67
2022/08/07 06:10:29;;;;;;;4.38;3.30;;;27.00;42.90;;;;;;4990996;28;20397;-67
2022/08/07 06:12:56;;;;;;;4.22;3.05;;;27.30;42.30;;;;;;4990662;28;20497;-67
2022/08/07 06:15:22;;;;;;;4.60;3.10;;;27.50;41.80;;;;;;4990510;28;20465;-67
2022/08/07 06:17:48;;;;;;;3.55;2.90;;;27.70;41.30;;;;;;4990767;28;20023;-67
2022/08/07 06:20:14;;;;;;;3.67;2.97;;;28.00;40.80;;;;;;4990538;28;20076;-67
2022/08/07 06:22:42;;;;;;;5.22;3.53;;;28.10;40.50;;;;;;4990831;28;20022;-67
2022/08/07 06:25:09;;;;;;;5.40;3.72;;;28.40;40.10;;;;;;4990590;28;20029;-67
2022/08/07 06:27:34;;;;;;;5.00;3.70;;;28.70;39.60;;;;;;4990669;28;20037;-67
2022/08/07 06:30:00;;;;;;;4.38;3.42;;;28.90;39.00;;;;;;4990555;28;20031;-66
2022/08/07 06:32:26;;;;;;;4.25;3.30;;;29.10;38.80;;;;;;4991043;28;20030;-67
2022/08/07 06:34:51;;;;;;;5.10;3.17;;;29.30;38.50;;;;;;4990242;28;20385;-67
2022/08/07 06:37:17;;;;;;;3.60;2.90;;;29.40;38.30;;;;;;4995099;28;20026;-67
2022/08/07 06:39:42;;;;;;;4.55;3.33;;;29.50;38.40;;;;;;5010350;28;20071;-67
2022/08/07 06:42:14;;;;;;;5.40;3.45;;;29.60;38.10;;;;;;5010343;28;20030;-66
2022/08/07 06:44:42;;;;;;;3.40;2.70;;;29.40;38.40;;;;;;5010140;28;20053;-67
2022/08/07 06:47:08;;;;;;;4.28;2.75;;;29.40;38.50;;;;;;5010011;28;20048;-67
2022/08/07 06:49:33;;;;;;;3.30;2.65;;;29.40;38.60;;;;;;5010153;28;20030;-68
2022/08/07 06:52:01;;;;;;;5.20;3.55;;;29.40;38.70;;;;;;5009969;28;20481;-67
2022/08/07 06:54:27;;;;;;;4.10;3.25;;;28.70;38.70;;;;;;5009992;28;20032;-67
2022/08/07 06:56:54;;;;;;;3.33;2.95;;;28.10;39.50;;;;;;5012470;28;20388;-67
2022/08/07 06:59:24;;;;;;;2.28;2.08;;;28.10;40.30;;;;;;5013506;28;20014;-67
2022/08/07 07:01:52;;;;;;;3.88;3.15;;;28.30;40.60;;;;;;5013531;28;20435;-66
2022/08/07 07:04:18;;;;;;;5.93;3.58;;;27.90;40.50;;;;;;5013437;28;20033;-67
2022/08/07 07:06:44;;;;;;;4.20;3.10;;;27.40;40.80;;;;;;5013508;28;20608;-67
2022/08/07 07:09:25;;;;;;;4.70;3.38;;;27.30;41.50;;;;;;5013572;28;20030;-67
2022/08/07 07:12:05;;;;;;;3.63;2.50;;;27.30;41.10;;;;;;5013273;28;20740;-67
2022/08/07 07:14:46;;;;;;;3.75;2.50;;;27.50;41.10;;;;;;5013193;28;20072;-66
2022/08/07 07:17:19;;;;;;;3.55;2.40;;;28.30;40.40;;;;;;5011969;28;20701;-67
2022/08/07 07:19:51;;;;;;;4.55;2.67;;;28.90;39.50;;;;;;5013368;28;20018;-66
2022/08/07 07:22:18;;;;;;;3.15;2.42;;;29.20;38.90;;;;;;5013165;28;20022;-66
2022/08/07 07:24:45;;;;;;;2.72;2.38;;;29.40;38.60;;;;;;5013013;28;20030;-66
2022/08/07 07:27:13;;;;;;;3.33;2.10;;;29.60;38.10;;;;;;5013125;28;20029;-66
2022/08/07 07:29:46;;;;;;;2.85;2.00;;;29.90;37.90;;;;;;5013063;28;20025;-67
2022/08/07 07:32:14;;;;;;;2.13;1.90;;;30.00;37.60;;;;;;5013186;28;20025;-67
2022/08/07 07:34:44;;;;;;;3.08;1.90;;;30.10;37.60;;;;;;5012502;28;20459;-67
2022/08/07 07:37:11;;;;;;;3.72;2.10;;;30.00;37.80;;;;;;5013106;28;20500;-67
2022/08/07 07:39:38;;;;;;;1.80;1.70;;;29.80;37.80;;;;;;5012762;28;20042;-66
2022/08/07 07:42:06;;;;;;;2.83;2.05;;;29.40;38.20;;;;;;5012775;28;20026;-66
2022/08/07 07:44:33;;;;;;;4.47;1.90;;;29.00;38.60;;;;;;5012531;28;20489;-67
2022/08/07 07:47:01;;;;;;;1.80;1.60;;;28.70;39.10;;;;;;5013049;28;20022;-67
2022/08/07 07:49:28;;;;;;;3.03;1.88;;;28.40;39.50;;;;;;5011255;28;20493;-67
2022/08/07 07:51:55;;;;;;;2.38;1.70;;;27.90;39.70;;;;;;5012879;28;20025;-67
2022/08/07 07:54:23;;;;;;;1.88;1.60;;;27.50;40.30;;;;;;5012356;28;20500;-67
2022/08/07 07:56:51;;;;;;;2.05;1.50;;;27.10;40.50;;;;;;5011504;28;20025;-65
2022/08/07 07:59:18;;;;;;;1.73;1.30;;;26.70;40.80;;;;;;5012577;28;20455;-66
2022/08/07 08:01:46;;;;;;;1.70;1.30;;;26.30;41.00;;;;;;5011145;28;20507;-65
2022/08/07 08:04:14;;;;;;;2.03;1.60;;;25.90;41.70;;;;;;5012317;28;20557;-65
2022/08/07 08:06:42;;;;;;;1.80;1.02;;;25.70;41.90;;;;;;5012117;28;20493;-65
2022/08/07 08:09:09;;;;;;;1.50;1.30;;;25.40;42.10;;;;;;5011805;28;20022;-65
2022/08/07 08:11:36;;;;;;;1.60;1.30;;;25.30;42.70;;;;;;5012324;28;20029;-65
2022/08/07 08:14:02;;;;;;;2.85;1.45;;;25.10;42.90;;;;;;5012328;28;20053;-66
2022/08/07 08:16:55;;;;;;;2.05;1.25;;;25.00;42.80;;;;;;5012052;28;20118;-66
2022/08/07 08:19:26;;;;;;;1.85;1.27;;;25.00;42.70;;;;;;5011188;28;20026;-66
2022/08/07 08:27:29;;;;;;;1.52;1.20;;;25.00;42.40;;;;;;5011904;28;20048;-66
2022/08/07 08:30:06;;;;;;;1.60;1.30;;;25.00;42.40;;;;;;5011821;28;20029;-67
2022/08/07 08:32:37;;;;;;;1.98;1.48;;;25.00;42.10;;;;;;5011740;28;20400;-67
2022/08/07 08:35:05;;;;;;;1.30;1.20;;;24.90;42.20;;;;;;5011821;28;20026;-67
2022/08/07 08:37:34;;;;;;;1.95;1.20;;;25.00;42.30;;;;;;5011762;28;20017;-67
2022/08/07 08:40:01;;;;;;;2.55;1.45;;;25.10;42.10;;;;;;5004395;28;20022;-67
2022/08/07 08:42:38;;;;;;;1.63;1.35;;;25.10;40.50;;;;;;5003853;28;20049;-67
2022/08/07 08:45:33;;;;;;;1.90;1.40;;;24.80;40.90;;;;;;5000732;28;20019;-67
2022/08/07 08:48:13;;;;;;;1.80;1.30;;;24.50;40.80;;;;;;4999827;28;20022;-66
2022/08/07 08:50:59;;;;;;;1.98;1.40;;;24.40;41.50;;;;;;4999158;28;20112;-67
2022/08/07 08:53:50;;;;;;;2.05;1.30;;;24.40;41.80;;;;;;5008788;28;20029;-67
2022/08/07 08:56:40;;;;;;;1.85;1.38;;;24.50;41.90;;;;;;5011671;28;20136;-67
2022/08/07 08:59:34;;;;;;;2.72;1.90;;;24.70;41.80;;;;;;5004773;28;20030;-67
2022/08/07 09:02:27;;;;;;;1.98;1.23;;;24.80;41.50;;;;;;5003273;28;20106;-67
2022/08/07 09:05:04;;;;;;;1.85;1.30;;;24.70;41.60;;;;;;5002070;28;20469;-66
2022/08/07 09:07:48;;;;;;;2.58;1.30;;;24.80;41.60;;;;;;4997555;28;20053;-66
2022/08/07 09:10:43;;;;;;;2.17;1.42;;;24.90;41.30;;;;;;5007226;28;20085;-67
2022/08/07 09:13:28;;;;;;;3.25;1.25;;;24.90;40.10;;;;;;4985123;28;20408;-67
2022/08/07 09:16:03;;;;;;;1.52;1.30;;;24.90;40.10;;;;;;5001326;28;20037;-66
2022/08/07 09:18:42;;;;;;;1.63;1.20;;;24.90;40.30;;;;;;5004587;28;20539;-66
2022/08/07 09:21:30;;;;;;;2.42;1.60;;;25.00;40.40;;;;;;5005758;28;20022;-66
2022/08/07 09:24:13;;;;;;;1.50;1.40;;;25.20;40.60;;;;;;5008183;28;20271;-67
2022/08/07 09:26:53;;;;;;;1.40;1.30;;;25.40;40.60;;;;;;5007723;28;20029;-66
2022/08/07 09:29:42;;;;;;;1.63;1.48;;;25.60;40.30;;;;;;5008425;28;20031;-67
2022/08/07 09:32:30;;;;;;;1.95;1.40;;;25.70;39.50;;;;;;4999583;28;20492;-66
2022/08/07 09:35:11;;;;;;;1.70;1.30;;;25.60;39.40;;;;;;5008006;28;20076;-67
2022/08/07 09:37:58;;;;;;;1.35;1.15;;;25.60;39.50;;;;;;5008036;28;20103;-67
2022/08/07 09:40:49;;;;;;;2.92;1.40;;;25.60;39.30;;;;;;5007049;28;20381;-67
2022/08/07 09:43:51;;;;;;;2.65;1.30;;;25.40;39.50;;;;;;5005477;28;20036;-66
2022/08/07 09:46:54;;;;;;;1.50;1.35;;;25.30;39.80;;;;;;5006887;28;20396;-67
2022/08/07 09:49:32;;;;;;;1.55;1.40;;;25.10;40.10;;;;;;5002014;28;20092;-66
2022/08/07 09:52:03;;;;;;;1.30;1.20;;;25.00;40.20;;;;;;5003050;28;20541;-66
2022/08/07 09:54:42;;;;;;;2.05;1.42;;;25.10;40.30;;;;;;5009029;28;20480;-65
2022/08/07 09:57:36;;;;;;;1.50;1.40;;;25.10;40.30;;;;;;5003835;28;20477;-66
2022/08/07 10:00:08;;;;;;;2.80;1.55;;;25.10;40.10;;;;;;5007537;28;20100;-66
2022/08/07 10:02:55;;;;;;;2.30;1.70;;;25.10;39.50;;;;;;5005880;28;20053;-66
2022/08/07 10:06:16;;;;;;;3.30;1.73;;;24.90;39.50;;;;;;5007205;28;20068;-65
2022/08/07 10:08:59;;;;;;;2.20;1.55;;;24.60;39.50;;;;;;4976087;28;20041;-65
2022/08/07 10:11:43;;;;;;;2.10;1.50;;;24.70;39.80;;;;;;5006464;28;20432;-66
2022/08/07 10:14:41;;;;;;;2.88;1.50;;;25.00;39.80;;;;;;5006254;28;20030;-66
2022/08/07 10:17:41;;;;;;;2.65;1.63;;;25.10;39.60;;;;;;5006291;28;20022;-65
2022/08/07 10:20:25;;;;;;;2.95;1.60;;;25.30;39.60;;;;;;5006605;28;20546;-65
2022/08/07 10:23:15;;;;;;;2.40;1.60;;;25.50;39.10;;;;;;5006968;28;20049;-66
2022/08/07 10:26:05;;;;;;;1.70;1.40;;;25.50;39.00;;;;;;5005705;28;20029;-65
2022/08/07 10:28:54;;;;;;;1.75;1.45;;;25.50;39.30;;;;;;5004245;28;20037;-65
2022/08/07 10:31:32;;;;;;;1.83;1.40;;;25.70;39.10;;;;;;5008306;28;20649;-66
2022/08/07 10:34:04;;;;;;;2.83;1.92;;;25.80;39.10;;;;;;5011136;28;20034;-65
2022/08/07 10:36:33;;;;;;;1.60;1.50;;;26.00;38.70;;;;;;5010368;28;20033;-65
2022/08/07 10:39:20;;;;;;;2.33;1.60;;;26.00;38.70;;;;;;5009702;28;20527;-66
2022/08/07 10:42:06;;;;;;;1.92;1.50;;;26.10;38.40;;;;;;5008222;28;20033;-65
2022/08/07 10:44:46;;;;;;;1.98;1.30;;;26.20;38.30;;;;;;5009545;28;20022;-65
2022/08/07 10:47:19;;;;;;;2.95;1.50;;;26.40;38.00;;;;;;5010514;28;20042;-65
2022/08/07 10:49:55;;;;;;;1.50;1.40;;;26.60;37.80;;;;;;5009241;28;20021;-65
2022/08/07 10:52:35;;;;;;;1.77;1.30;;;26.60;37.60;;;;;;5009738;28;20029;-66
2022/08/07 10:55:19;;;;;;;4.18;1.40;;;26.70;37.60;;;;;;5010108;28;20022;-67
2022/08/07 10:57:47;;;;;;;1.63;1.30;;;26.80;38.00;;;;;;5010543;28;20134;-65
2022/08/07 11:00:17;;;;;;;1.63;1.52;;;26.90;37.00;;;;;;5010326;28;20040;-66
2022/08/07 11:02:59;;;;;;;2.50;1.43;;;27.10;36.70;;;;;;5006964;28;20030;-67
2022/08/07 11:05:27;;;;;;;;;;;27.10;36.00;;;;;;5010216;28;20048;-65
2022/08/07 11:08:19;;;;;;;2.40;1.80;;;27.00;35.70;;;;;;5010587;28;19905;-65
2022/08/07 11:10:54;;;;;;;1.60;1.40;;;26.70;35.40;;;;;;4998034;28;20045;-65
2022/08/07 11:13:35;;;;;;;2.63;1.95;;;26.70;35.80;;;;;;5007999;28;20018;-65
2022/08/07 11:16:19;;;;;;;2.45;1.60;;;26.60;35.90;;;;;;5009798;28;20018;-65
2022/08/07 11:19:19;;;;;;;2.67;1.40;;;26.40;36.50;;;;;;5010007;28;20540;-66
2022/08/07 11:22:11;;;;;;;1.77;1.63;;;26.60;36.50;;;;;;5008341;28;20459;-66
2022/08/07 11:24:48;;;;;;;2.47;1.67;;;26.80;36.40;;;;;;5008176;28;20050;-66
2022/08/07 11:27:52;;;;;;;2.00;1.40;;;26.90;35.90;;;;;;5009269;28;20053;-66
2022/08/07 11:30:23;;;;;;;2.47;1.65;;;27.10;35.70;;;;;;5008544;28;20053;-66
2022/08/07 11:33:05;;;;;;;3.30;1.70;;;27.40;35.80;;;;;;5008790;28;20029;-65
2022/08/07 11:35:51;;;;;;;2.67;1.50;;;27.70;35.40;;;;;;5010170;28;20019;-66
2022/08/07 11:38:29;;;;;;;1.92;1.23;;;27.80;35.00;;;;;;5005393;28;20148;-66
2022/08/07 11:41:02;;;;;;;1.58;1.30;;;28.00;34.80;;;;;;5009083;28;20509;-66
2022/08/07 11:43:33;;;;;;;1.88;1.30;;;28.10;34.50;;;;;;5007329;28;20025;-66
2022/08/07 11:46:31;;;;;;;1.73;1.50;;;28.10;34.00;;;;;;5010117;28;20022;-66
2022/08/07 11:49:20;;;;;;;2.50;2.00;;;28.00;33.70;;;;;;5009347;28;20018;-66
2022/08/07 11:52:05;;;;;;;2.30;1.40;;;28.10;34.50;;;;;;5008833;28;20040;-66
2022/08/07 11:54:56;;;;;;;3.13;1.60;;;28.20;34.20;;;;;;5008964;28;20124;-66
2022/08/07 11:57:40;;;;;;;2.30;1.50;;;28.40;33.80;;;;;;5010084;28;20088;-66
2022/08/07 12:00:50;;;;;;;1.83;1.70;;;28.40;34.10;;;;;;5008263;28;20742;-66
2022/08/07 12:03:24;;;;;;;1.83;1.50;;;28.00;33.60;;;;;;5010572;28;20065;-66
2022/08/07 12:06:17;;;;;;;1.40;1.30;;;27.80;34.10;;;;;;5011104;28;20033;-68
2022/08/07 12:09:00;;;;;;;2.10;1.58;;;27.70;34.50;;;;;;5011537;28;20038;-66
2022/08/07 12:11:33;;;;;;;1.73;1.60;;;27.40;34.30;;;;;;5007894;28;20049;-66
2022/08/07 12:14:15;;;;;;;1.77;1.67;;;27.40;34.40;;;;;;5005356;28;20510;-66
2022/08/07 12:16:54;;;;;;;1.55;1.45;;;27.50;34.30;;;;;;5008708;28;20033;-66
2022/08/07 12:20:09;;;;;;;1.50;1.40;;;27.30;34.50;;;;;;5009104;28;20052;-67
2022/08/07 12:22:39;;;;;;;1.65;1.40;;;27.40;34.70;;;;;;5000711;28;20061;-67
2022/08/07 12:28:06;;;;;;;2.03;1.30;;;27.40;35.50;;;;;;5008648;28;20052;-66
2022/08/07 12:30:36;;;;;;;1.67;1.40;;;27.20;35.00;;;;;;5012761;28;20048;-66
2022/08/07 12:33:17;;;;;;;1.83;1.50;;;27.20;35.00;;;;;;5017564;28;20097;-67
2022/08/07 12:35:45;;;;;;;1.50;1.40;;;27.10;35.10;;;;;;5017852;28;20034;-66
2022/08/07 12:38:13;;;;;;;1.33;1.23;;;27.20;35.20;;;;;;5012745;28;20034;-66
2022/08/07 12:40:45;;;;;;;1.80;1.42;;;27.40;35.80;;;;;;5007412;28;20018;-66
2022/08/07 12:43:12;;;;;;;1.80;1.42;;;27.30;35.40;;;;;;5007511;28;20029;-66
2022/08/07 12:45:57;;;;;;;1.67;1.40;;;27.50;34.90;;;;;;5007231;28;20496;-66
2022/08/07 12:48:57;;;;;;;2.28;1.60;;;27.90;34.70;;;;;;5007813;28;20519;-66
2022/08/07 12:51:40;;;;;;;2.40;1.90;;;28.20;33.30;;;;;;5006332;28;20073;-67
2022/08/07 12:54:11;;;;;;;2.72;1.40;;;27.70;33.50;;;;;;5005493;28;20026;-66
2022/08/07 12:56:41;;;;;;;1.92;1.48;;;27.80;34.10;;;;;;5006184;28;20034;-66
2022/08/07 12:59:10;;;;;;;1.80;1.40;;;27.90;34.10;;;;;;5007009;28;20109;-66
2022/08/07 13:02:20;;;;;;;1.27;1.17;;;28.00;34.00;;;;;;5005864;28;20058;-69
2022/08/07 13:05:13;;;;;;;2.78;1.30;;;28.00;33.90;;;;;;5005402;28;20021;-65
2022/08/07 13:08:07;;;;;;;1.48;1.20;;;27.80;33.90;;;;;;5007020;28;20026;-66
2022/08/07 13:11:10;;;;;;;1.83;1.52;;;27.90;34.00;;;;;;5004281;28;20027;-66
2022/08/07 13:13:54;;;;;;;1.50;1.30;;;27.70;33.10;;;;;;5006378;28;20041;-66
2022/08/07 13:16:36;;;;;;;1.33;1.20;;;27.90;33.30;;;;;;5009886;28;20029;-66
2022/08/07 13:19:39;;;;;;;2.67;1.40;;;28.20;33.10;;;;;;5020965;28;20022;-66
2022/08/07 13:22:17;;;;;;;1.67;1.30;;;28.30;32.60;;;;;;5017856;28;20488;-67
2022/08/07 13:25:09;;;;;;;1.60;1.33;;;28.30;32.60;;;;;;5004496;28;20034;-66
2022/08/07 13:28:01;;;;;;;1.83;1.40;;;28.30;32.90;;;;;;5006048;28;20038;-66